createdAt,value
2019-01-20T00:00:05.961Z,1007.78
2019-01-20T00:01:05.923Z,1007.80
2019-01-20T00:02:05.892Z,1007.76
2019-01-20T00:03:05.865Z,1007.81
2019-01-20T00:04:05.829Z,1007.81
2019-01-20T00:05:05.788Z,1007.79
2019-01-20T00:06:05.772Z,1007.80
2019-01-20T00:07:05.731Z,1007.79
2019-01-20T00:08:05.696Z,1007.82
2019-01-20T00:09:05.658Z,1007.77
2019-01-20T00:10:05.634Z,1007.70
2019-01-20T00:11:05.601Z,1007.66
2019-01-20T00:12:05.567Z,1007.69
2019-01-20T00:13:05.527Z,1007.69
2019-01-20T00:14:05.498Z,1007.66
2019-01-20T00:15:05.459Z,1007.65
2019-01-20T00:16:05.425Z,1007.62
2019-01-20T00:17:05.394Z,1007.63
2019-01-20T00:18:05.356Z,1007.60
2019-01-20T00:19:05.321Z,1007.60
2019-01-20T00:20:05.291Z,1007.61
2019-01-20T00:21:05.253Z,1007.58
2019-01-20T00:22:05.251Z,1007.60
2019-01-20T00:23:05.192Z,1007.60
2019-01-20T00:24:05.176Z,1007.61
2019-01-20T00:25:05.139Z,1007.59
2019-01-20T00:26:05.094Z,1007.61
2019-01-20T00:27:05.063Z,1007.60
2019-01-20T00:28:05.024Z,1007.62
2019-01-20T00:29:06.758Z,1007.63
2019-01-20T00:30:04.962Z,1007.59
2019-01-20T00:31:04.918Z,1007.57
2019-01-20T00:32:04.894Z,1007.57
2019-01-20T00:33:04.855Z,1007.61
2019-01-20T00:34:04.837Z,1007.65
2019-01-20T00:35:04.779Z,1007.62
2019-01-20T00:36:04.759Z,1007.64
2019-01-20T00:37:04.720Z,1007.67
2019-01-20T00:38:04.680Z,1007.65
2019-01-20T00:39:04.654Z,1007.71
2019-01-20T00:40:04.627Z,1007.72
2019-01-20T00:41:04.578Z,1007.69
2019-01-20T00:42:04.551Z,1007.75
2019-01-20T00:43:04.510Z,1007.74
2019-01-20T00:44:04.496Z,1007.72
2019-01-20T00:45:04.450Z,1007.74
2019-01-20T00:46:04.425Z,1007.71
2019-01-20T00:47:04.380Z,1007.69
2019-01-20T00:48:04.349Z,1007.68
2019-01-20T00:49:04.325Z,1007.69
2019-01-20T00:50:04.319Z,1007.74
2019-01-20T00:51:04.272Z,1007.71
2019-01-20T00:52:04.230Z,1007.72
2019-01-20T00:53:04.187Z,1007.70
2019-01-20T00:54:04.147Z,1007.72
2019-01-20T00:55:04.116Z,1007.70
2019-01-20T00:56:04.097Z,1007.68
2019-01-20T00:57:04.056Z,1007.66
2019-01-20T00:58:04.032Z,1007.66
2019-01-20T00:59:03.983Z,1007.67
2019-01-20T01:00:03.951Z,1007.66
2019-01-20T01:01:03.911Z,1007.63
2019-01-20T01:02:03.883Z,1007.67
2019-01-20T01:03:03.844Z,1007.69
2019-01-20T01:04:03.814Z,1007.61
2019-01-20T01:05:03.787Z,1007.66
2019-01-20T01:06:03.748Z,1007.63
2019-01-20T01:07:03.716Z,1007.64
2019-01-20T01:08:03.691Z,1007.64
2019-01-20T01:09:03.648Z,1007.65
2019-01-20T01:10:03.621Z,1007.71
2019-01-20T01:11:03.572Z,1007.67
2019-01-20T01:12:03.548Z,1007.67
2019-01-20T01:13:03.505Z,1007.73
2019-01-20T01:14:03.483Z,1007.72
2019-01-20T01:15:03.444Z,1007.71
2019-01-20T01:16:03.428Z,1007.74
2019-01-20T01:17:03.374Z,1007.70
2019-01-20T01:18:03.345Z,1007.74
2019-01-20T01:19:03.317Z,1007.75
2019-01-20T01:20:19.095Z,1007.75
2019-01-20T01:21:03.243Z,1007.76
2019-01-20T01:22:20.098Z,1007.80
2019-01-20T01:23:03.214Z,1007.80
2019-01-20T03:08:30.301Z,1007.71
2019-01-20T03:09:28.649Z,1007.72
2019-01-20T03:10:28.626Z,1007.75
2019-01-20T03:11:28.584Z,1007.69
2019-01-20T03:12:28.555Z,1007.76
2019-01-20T03:13:28.520Z,1007.72
2019-01-20T03:14:28.486Z,1007.76
2019-01-20T03:15:29.352Z,1007.72
2019-01-20T03:16:28.424Z,1007.73
2019-01-20T03:17:28.381Z,1007.78
2019-01-20T03:18:28.353Z,1007.77
2019-01-20T03:19:28.327Z,1007.80
2019-01-20T03:20:28.281Z,1007.83
2019-01-20T03:21:28.255Z,1007.82
2019-01-20T03:22:28.223Z,1007.83
2019-01-20T03:23:28.183Z,1007.83
2019-01-20T03:24:28.147Z,1007.80
2019-01-20T03:25:28.124Z,1007.81
2019-01-20T03:26:28.078Z,1007.83
2019-01-20T03:27:28.041Z,1007.82
2019-01-20T03:28:28.018Z,1007.80
2019-01-20T03:29:27.977Z,1007.82
2019-01-20T03:30:27.986Z,1007.85
2019-01-20T03:31:27.928Z,1007.78
2019-01-20T03:32:27.881Z,1007.80
2019-01-20T03:33:27.838Z,1007.77
2019-01-20T03:34:27.824Z,1007.76
2019-01-20T03:35:27.777Z,1007.76
2019-01-20T03:36:27.750Z,1007.79
2019-01-20T03:37:27.707Z,1007.78
2019-01-20T03:38:27.679Z,1007.84
2019-01-20T03:39:27.638Z,1007.81
2019-01-20T03:40:27.610Z,1007.83
2019-01-20T03:41:27.571Z,1007.83
2019-01-20T03:42:27.566Z,1007.85
2019-01-20T03:43:27.512Z,1007.80
2019-01-20T03:44:27.472Z,1007.74
2019-01-20T03:45:27.438Z,1007.83
2019-01-20T03:46:27.409Z,1007.79
2019-01-20T03:47:27.364Z,1007.81
2019-01-20T03:48:27.338Z,1007.80
2019-01-20T03:49:27.306Z,1007.81
2019-01-20T03:50:27.280Z,1007.78
2019-01-20T03:51:27.232Z,1007.77
2019-01-20T03:52:27.209Z,1007.76
2019-01-20T03:53:27.167Z,1007.73
2019-01-20T03:54:27.138Z,1007.77
2019-01-20T03:55:27.111Z,1007.74
2019-01-20T03:56:27.068Z,1007.76
2019-01-20T03:57:27.033Z,1007.70
2019-01-20T03:58:27.013Z,1007.69
2019-01-20T03:59:26.974Z,1007.72
2019-01-20T04:00:26.977Z,1007.71
2019-01-20T04:01:26.891Z,1007.75
2019-01-20T04:02:26.872Z,1007.72
2019-01-20T04:03:26.823Z,1007.72
2019-01-20T04:04:26.822Z,1007.75
2019-01-20T04:05:26.758Z,1007.71
2019-01-20T04:06:26.723Z,1007.74
2019-01-20T04:07:26.693Z,1007.73
2019-01-20T04:21:38.483Z,1007.67
2019-01-20T04:22:37.396Z,1007.69
2019-01-20T04:23:37.366Z,1007.63
2019-01-20T04:24:37.332Z,1007.61
2019-01-20T04:25:38.300Z,1007.67
2019-01-20T04:26:37.293Z,1007.71
2019-01-20T04:27:37.258Z,1007.69
2019-01-20T04:28:37.264Z,1007.71
2019-01-20T04:29:38.462Z,1007.68
2019-01-20T04:30:37.148Z,1007.68
2019-01-20T04:31:37.140Z,1007.69
2019-01-20T04:32:37.074Z,1007.67
2019-01-20T04:33:37.023Z,1007.71
2019-01-20T04:34:36.990Z,1007.71
2019-01-20T04:35:36.951Z,1007.67
2019-01-20T04:36:36.927Z,1007.66
2019-01-20T04:37:36.894Z,1007.71
2019-01-20T04:38:36.852Z,1007.66
2019-01-20T04:39:36.823Z,1007.70
2019-01-20T04:40:36.783Z,1007.69
2019-01-20T04:41:36.755Z,1007.65
2019-01-20T04:42:36.743Z,1007.62
2019-01-20T04:43:37.757Z,1007.62
2019-01-20T04:44:36.653Z,1007.63
2019-01-20T04:45:37.615Z,1007.61
2019-01-20T04:46:36.574Z,1007.64
2019-01-20T04:47:36.564Z,1007.63
2019-01-20T04:48:36.521Z,1007.62
2019-01-20T04:49:36.488Z,1007.62
2019-01-20T04:50:36.435Z,1007.65
2019-01-20T04:51:36.413Z,1007.67
2019-01-20T04:52:36.385Z,1007.65
2019-01-20T04:53:37.367Z,1007.66
2019-01-20T04:54:36.307Z,1007.68
2019-01-20T04:55:36.271Z,1007.70
2019-01-20T04:56:36.258Z,1007.69
2019-01-20T04:57:36.215Z,1007.70
2019-01-20T04:58:36.172Z,1007.70
2019-01-20T04:59:36.175Z,1007.71
2019-01-20T05:00:36.102Z,1007.77
2019-01-20T05:01:36.093Z,1007.76
2019-01-20T05:02:36.037Z,1007.75
2019-01-20T05:03:36.054Z,1007.78
2019-01-20T05:04:35.966Z,1007.75
2019-01-20T05:05:35.936Z,1007.75
2019-01-20T05:06:35.899Z,1007.78
2019-01-20T05:07:35.898Z,1007.77
2019-01-20T05:08:35.830Z,1007.74
2019-01-20T05:24:06.604Z,1007.91
2019-01-20T05:25:06.597Z,1007.96
2019-01-20T05:26:06.514Z,1007.96
2019-01-20T05:27:06.472Z,1007.91
2019-01-20T05:28:06.460Z,1007.93
2019-01-20T05:29:06.411Z,1007.89
2019-01-20T05:30:06.395Z,1007.92
2019-01-20T05:31:06.358Z,1007.97
2019-01-20T05:32:06.305Z,1007.91
2019-01-20T05:33:06.280Z,1007.91
2019-01-20T05:34:06.243Z,1007.90
2019-01-20T05:35:06.212Z,1007.90
2019-01-20T05:36:06.175Z,1007.83
2019-01-20T05:37:06.141Z,1007.83
2019-01-20T05:38:06.109Z,1007.82
2019-01-20T05:39:06.072Z,1007.86
2019-01-20T05:40:06.034Z,1007.84
2019-01-20T05:41:06.013Z,1007.84
2019-01-20T05:42:05.961Z,1007.87
2019-01-20T05:43:05.939Z,1007.85
2019-01-20T05:44:05.900Z,1007.88
2019-01-20T05:45:05.872Z,1007.86
2019-01-20T05:46:05.835Z,1007.87
2019-01-20T05:47:06.814Z,1007.84
2019-01-20T05:48:05.765Z,1007.81
2019-01-20T05:49:05.731Z,1007.86
2019-01-20T05:50:05.694Z,1007.84
2019-01-20T05:51:05.666Z,1007.90
2019-01-20T05:52:05.619Z,1007.89
2019-01-20T05:53:05.593Z,1007.91
2019-01-20T05:54:05.558Z,1007.90
2019-01-20T05:55:05.527Z,1007.93
2019-01-20T05:56:05.489Z,1007.92
2019-01-20T05:57:05.465Z,1007.89
2019-01-20T05:58:05.451Z,1007.92
2019-01-20T05:59:05.391Z,1007.89
2019-01-20T06:00:05.350Z,1007.96
2019-01-20T06:01:05.326Z,1007.98
2019-01-20T06:02:05.287Z,1008.02
2019-01-20T06:03:05.252Z,1008.00
2019-01-20T06:04:05.219Z,1008.03
2019-01-20T06:05:05.187Z,1008.03
2019-01-20T06:06:05.145Z,1008.06
2019-01-20T06:07:05.122Z,1008.07
2019-01-20T06:08:05.082Z,1008.04
2019-01-20T06:09:05.045Z,1008.03
2019-01-20T06:10:05.015Z,1008.03
2019-01-20T06:11:04.977Z,1008.05
2019-01-20T06:12:05.033Z,1008.06
2019-01-20T06:13:04.921Z,1007.98
2019-01-20T06:14:04.873Z,1008.01
2019-01-20T06:15:04.846Z,1008.04
2019-01-20T06:16:04.826Z,1008.02
2019-01-20T06:17:04.772Z,1008.02
2019-01-20T06:18:04.740Z,1008.00
2019-01-20T06:19:04.721Z,1007.99
2019-01-20T06:20:04.672Z,1008.02
2019-01-20T06:21:04.660Z,1007.98
2019-01-20T06:22:04.593Z,1008.01
2019-01-20T06:23:04.570Z,1007.98
2019-01-20T06:24:04.532Z,1008.04
2019-01-20T06:25:04.504Z,1007.99
2019-01-20T06:26:04.462Z,1008.01
2019-01-20T06:27:04.430Z,1007.99
2019-01-20T06:28:04.392Z,1007.98
2019-01-20T06:29:04.366Z,1008.00
2019-01-20T06:30:04.323Z,1008.01
2019-01-20T06:31:04.329Z,1007.93
2019-01-20T06:32:04.256Z,1007.99
2019-01-20T06:33:05.232Z,1008.00
2019-01-20T06:34:04.191Z,1007.98
2019-01-20T06:35:04.161Z,1007.98
2019-01-20T06:36:04.127Z,1007.98
2019-01-20T06:37:04.096Z,1008.04
2019-01-20T06:38:04.059Z,1008.04
2019-01-20T06:39:04.025Z,1007.96
2019-01-20T06:40:05.986Z,1008.00
2019-01-20T06:41:03.955Z,1007.92
2019-01-20T06:42:03.911Z,1008.02
2019-01-20T06:43:03.885Z,1007.98
2019-01-20T06:44:03.853Z,1008.11
2019-01-20T06:45:03.809Z,1008.08
2019-01-20T06:46:03.784Z,1008.11
2019-01-20T06:47:03.744Z,1008.13
2019-01-20T06:48:03.716Z,1008.15
2019-01-20T06:49:03.695Z,1008.12
2019-01-20T06:50:03.646Z,1008.13
2019-01-20T06:51:03.604Z,1008.18
2019-01-20T06:52:03.571Z,1008.17
2019-01-20T06:53:03.538Z,1008.17
2019-01-20T06:54:03.510Z,1008.20
2019-01-20T06:55:03.469Z,1008.19
2019-01-20T06:56:03.438Z,1008.18
2019-01-20T06:57:03.397Z,1008.22
2019-01-20T06:58:03.424Z,1008.21
2019-01-20T06:59:03.335Z,1008.27
2019-01-20T07:00:03.343Z,1008.25
2019-01-20T07:01:03.264Z,1008.28
2019-01-20T07:02:03.250Z,1008.31
2019-01-20T07:03:03.197Z,1008.36
2019-01-20T07:04:03.267Z,1008.37
2019-01-20T07:05:03.129Z,1008.33
2019-01-20T07:06:03.176Z,1008.35
2019-01-20T07:07:03.053Z,1008.38
2019-01-20T07:08:03.087Z,1008.36
2019-01-20T07:09:02.987Z,1008.39
2019-01-20T07:10:02.997Z,1008.36
2019-01-20T07:11:02.918Z,1008.41
2019-01-20T07:12:02.906Z,1008.38
2019-01-20T07:13:09.176Z,1008.43
2019-01-20T07:14:02.814Z,1008.38
2019-01-20T07:15:02.828Z,1008.40
2019-01-20T07:16:02.748Z,1008.43
2019-01-20T07:17:02.722Z,1008.46
2019-01-20T07:18:02.762Z,1008.44
2019-01-20T07:19:02.652Z,1008.48
2019-01-20T07:20:02.657Z,1008.47
2019-01-20T07:21:02.574Z,1008.46
2019-01-20T07:22:02.567Z,1008.45
2019-01-20T07:23:02.516Z,1008.49
2019-01-20T07:24:02.583Z,1008.48
2019-01-20T07:25:02.458Z,1008.51
2019-01-20T07:26:02.523Z,1008.58
2019-01-20T07:27:02.371Z,1008.55
2019-01-20T07:28:02.402Z,1008.55
2019-01-20T07:29:02.298Z,1008.62
2019-01-20T07:30:02.315Z,1008.59
2019-01-20T07:31:02.239Z,1008.64
2019-01-20T07:32:02.223Z,1008.63
2019-01-20T07:33:02.163Z,1008.68
2019-01-20T07:34:02.239Z,1008.69
2019-01-20T07:35:02.096Z,1008.70
2019-01-20T07:36:02.150Z,1008.65
2019-01-20T07:37:02.030Z,1008.75
2019-01-20T07:38:02.061Z,1008.73
2019-01-20T07:39:01.950Z,1008.77
2019-01-20T07:40:01.977Z,1008.75
2019-01-20T07:41:01.906Z,1008.71
2019-01-20T07:42:01.883Z,1008.74
2019-01-20T07:43:01.823Z,1008.76
2019-01-20T07:44:02.819Z,1008.77
2019-01-20T07:45:01.747Z,1008.79
2019-01-20T07:46:01.811Z,1008.84
2019-01-20T07:47:01.724Z,1008.83
2019-01-20T07:48:01.761Z,1008.85
2019-01-20T07:49:01.614Z,1008.82
2019-01-20T07:50:01.631Z,1008.85
2019-01-20T07:51:01.541Z,1008.80
2019-01-20T07:52:01.544Z,1008.83
2019-01-20T07:53:01.482Z,1008.86
2019-01-20T07:54:01.619Z,1008.81
2019-01-20T07:55:01.423Z,1008.92
2019-01-20T07:56:01.471Z,1008.93
2019-01-20T07:57:01.336Z,1009.00
2019-01-20T07:58:01.313Z,1008.97
2019-01-20T07:59:01.721Z,1009.04
2019-01-20T08:00:01.233Z,1009.02
2019-01-20T08:01:01.295Z,1009.01
2019-01-20T08:02:01.163Z,1009.00
2019-01-20T08:03:01.207Z,1009.03
2019-01-20T08:04:01.100Z,1009.04
2019-01-20T08:05:01.062Z,1009.09
2019-01-20T08:06:01.038Z,1009.09
2019-01-20T08:07:00.997Z,1009.12
2019-01-20T08:08:00.955Z,1009.11
2019-01-20T08:09:00.933Z,1009.14
2019-01-20T08:10:00.892Z,1009.18
2019-01-20T08:11:00.948Z,1009.18
2019-01-20T08:12:00.819Z,1009.17
2019-01-20T08:13:00.812Z,1009.19
2019-01-20T08:14:00.750Z,1009.14
2019-01-20T08:15:00.772Z,1009.14
2019-01-20T08:16:00.680Z,1009.16
2019-01-20T08:17:00.642Z,1009.15
2019-01-20T08:18:00.612Z,1009.14
2019-01-20T08:19:00.578Z,1009.12
2019-01-20T08:20:00.540Z,1009.12
2019-01-20T08:21:00.520Z,1009.15
2019-01-20T08:22:00.477Z,1009.16
2019-01-20T08:23:00.454Z,1009.23
2019-01-20T08:24:00.411Z,1009.22
2019-01-20T08:25:00.367Z,1009.24
2019-01-20T08:26:00.338Z,1009.27
2019-01-20T08:27:00.303Z,1009.30
2019-01-20T08:28:00.273Z,1009.28
2019-01-20T08:29:00.230Z,1009.31
2019-01-20T08:30:00.214Z,1009.34
2019-01-20T08:31:00.170Z,1009.30
2019-01-20T08:32:00.184Z,1009.35
2019-01-20T08:33:00.096Z,1009.29
2019-01-20T08:34:00.075Z,1009.31
2019-01-20T08:35:00.256Z,1009.32
2019-01-20T08:36:00.109Z,1009.35
2019-01-20T08:37:00.005Z,1009.37
2019-01-20T08:37:59.917Z,1009.37
2019-01-20T08:38:59.917Z,1009.38
2019-01-20T08:39:59.854Z,1009.35
2019-01-20T08:40:59.938Z,1009.40
2019-01-20T08:41:59.782Z,1009.41
2019-01-20T08:42:59.842Z,1009.45
2019-01-20T08:43:59.713Z,1009.50
2019-01-20T08:45:00.776Z,1009.51
2019-01-20T08:45:59.649Z,1009.48
2019-01-20T08:46:59.671Z,1009.53
2019-01-20T08:47:59.574Z,1009.48
2019-01-20T08:48:59.546Z,1009.57
2019-01-20T08:49:59.509Z,1009.58
2019-01-20T08:50:59.491Z,1009.62
2019-01-20T08:51:59.441Z,1009.63
2019-01-20T08:52:59.498Z,1009.65
2019-01-20T08:53:59.371Z,1009.64
2019-01-20T08:54:59.410Z,1009.70
2019-01-20T08:55:59.301Z,1009.60
2019-01-20T08:56:59.327Z,1009.74
2019-01-20T08:57:59.229Z,1009.73
2019-01-20T08:58:59.232Z,1009.67
2019-01-20T08:59:59.172Z,1009.69
2019-01-20T09:00:59.144Z,1009.73
2019-01-20T09:01:59.101Z,1009.66
2019-01-20T09:02:59.173Z,1009.69
2019-01-20T09:03:59.024Z,1009.72
2019-01-20T09:04:58.990Z,1009.72
2019-01-20T09:05:58.963Z,1009.72
2019-01-20T09:06:58.921Z,1009.75
2019-01-20T09:07:58.894Z,1009.78
2019-01-20T09:08:58.967Z,1009.76
2019-01-20T09:09:58.823Z,1009.78
2019-01-20T09:10:58.877Z,1009.78
2019-01-20T09:11:58.777Z,1009.76
2019-01-20T09:12:58.793Z,1009.74
2019-01-20T09:13:58.733Z,1009.80
2019-01-20T09:14:58.700Z,1009.76
2019-01-20T09:15:58.624Z,1009.83
2019-01-20T09:16:58.613Z,1009.77
2019-01-20T09:17:58.542Z,1009.83
2019-01-20T09:18:58.640Z,1009.76
2019-01-20T09:19:58.526Z,1009.82
2019-01-20T09:20:58.540Z,1009.84
2019-01-20T09:21:58.406Z,1009.83
2019-01-20T09:22:58.377Z,1009.86
2019-01-20T09:23:58.365Z,1009.88
2019-01-20T09:24:58.300Z,1009.89
2019-01-20T09:25:58.265Z,1009.87
2019-01-20T09:26:58.243Z,1009.89
2019-01-20T09:27:58.214Z,1009.84
2019-01-20T09:28:58.170Z,1009.89
2019-01-20T09:29:58.129Z,1009.91
2019-01-20T09:30:58.112Z,1009.92
2019-01-20T09:31:58.071Z,1009.93
2019-01-20T09:32:58.034Z,1009.99
2019-01-20T09:33:58.002Z,1009.94
2019-01-20T09:34:57.960Z,1009.94
2019-01-20T09:35:57.940Z,1009.94
2019-01-20T09:36:57.899Z,1009.94
2019-01-20T09:37:57.868Z,1009.95
2019-01-20T09:38:57.835Z,1009.94
2019-01-20T09:39:57.854Z,1009.92
2019-01-20T09:40:57.761Z,1009.92
2019-01-20T09:41:57.871Z,1009.99
2019-01-20T09:42:57.695Z,1009.93
2019-01-20T09:43:57.786Z,1009.97
2019-01-20T09:44:57.643Z,1009.95
2019-01-20T09:45:57.714Z,1009.93
2019-01-20T09:46:57.553Z,1009.88
2019-01-20T09:47:57.611Z,1009.91
2019-01-20T09:48:57.505Z,1009.92
2019-01-20T09:49:57.518Z,1009.93
2019-01-20T09:50:57.490Z,1009.92
2019-01-20T09:51:57.413Z,1009.90
2019-01-20T09:52:57.363Z,1009.97
2019-01-20T09:53:57.332Z,1009.96
2019-01-20T09:54:57.341Z,1009.99
2019-01-20T09:55:57.252Z,1009.97
2019-01-20T09:56:57.368Z,1010.03
2019-01-20T09:57:57.188Z,1010.07
2019-01-20T09:58:57.267Z,1010.11
2019-01-20T09:59:57.543Z,1010.08
2019-01-20T10:01:04.042Z,1010.11
2019-01-20T10:01:57.054Z,1010.11
2019-01-20T10:02:59.155Z,1010.13
2019-01-20T10:03:56.982Z,1010.13
2019-01-20T10:05:19.031Z,1010.09
2019-01-20T10:05:56.937Z,1010.14
2019-01-20T10:06:57.060Z,1010.13
2019-01-20T10:07:56.846Z,1010.14
2019-01-20T10:08:56.924Z,1010.14
2019-01-20T10:09:56.783Z,1010.13
2019-01-20T10:10:56.828Z,1010.16
2019-01-20T10:11:56.701Z,1010.19
2019-01-20T10:12:56.744Z,1010.17
2019-01-20T10:13:56.632Z,1010.24
2019-01-20T10:14:56.763Z,1010.23
2019-01-20T10:15:56.585Z,1010.21
2019-01-20T10:16:56.532Z,1010.23
2019-01-20T10:17:56.506Z,1010.22
2019-01-20T10:18:56.580Z,1010.23
2019-01-20T10:19:56.432Z,1010.25
2019-01-20T10:20:56.405Z,1010.24
2019-01-20T10:21:56.379Z,1010.23
2019-01-20T10:22:56.350Z,1010.25
2019-01-20T10:23:56.312Z,1010.24
2019-01-20T10:24:56.261Z,1010.25
2019-01-20T10:25:56.243Z,1010.26
2019-01-20T10:26:56.273Z,1010.28
2019-01-20T10:27:56.157Z,1010.26
2019-01-20T10:28:56.238Z,1010.27
2019-01-20T10:29:56.091Z,1010.31
2019-01-20T10:30:56.149Z,1010.31
2019-01-20T10:31:56.028Z,1010.32
2019-01-20T10:32:56.008Z,1010.30
2019-01-20T10:33:55.957Z,1010.29
2019-01-20T10:34:55.915Z,1010.35
2019-01-20T10:35:55.924Z,1010.34
2019-01-20T10:36:55.932Z,1010.34
2019-01-20T10:37:55.814Z,1010.34
2019-01-20T10:38:55.792Z,1010.36
2019-01-20T10:39:55.829Z,1010.36
2019-01-20T10:40:55.766Z,1010.41
2019-01-20T10:41:55.704Z,1010.42
2019-01-20T10:42:55.757Z,1010.42
2019-01-20T10:44:02.020Z,1010.39
2019-01-20T10:44:55.749Z,1010.44
2019-01-20T10:45:55.550Z,1010.35
2019-01-20T10:46:55.519Z,1010.38
2019-01-20T10:47:55.493Z,1010.42
2019-01-20T10:48:55.467Z,1010.40
2019-01-20T10:49:55.417Z,1010.35
2019-01-20T10:50:55.464Z,1010.38
2019-01-20T10:51:55.347Z,1010.38
2019-01-20T10:52:55.312Z,1010.39
2019-01-20T10:53:55.285Z,1010.37
2019-01-20T10:54:55.248Z,1010.40
2019-01-20T10:55:55.294Z,1010.38
2019-01-20T10:56:55.178Z,1010.37
2019-01-20T10:57:55.198Z,1010.41
2019-01-20T10:58:55.112Z,1010.40
2019-01-20T10:59:55.188Z,1010.41
2019-01-20T11:00:55.045Z,1010.39
2019-01-20T11:01:55.039Z,1010.37
2019-01-20T11:02:54.975Z,1010.38
2019-01-20T11:03:56.995Z,1010.37
2019-01-20T11:04:57.515Z,1010.39
2019-01-20T11:05:55.991Z,1010.42
2019-01-20T11:06:54.845Z,1010.39
2019-01-20T11:07:54.870Z,1010.38
2019-01-20T11:08:54.778Z,1010.37
2019-01-20T11:09:54.781Z,1010.44
2019-01-20T11:10:54.723Z,1010.41
2019-01-20T11:11:54.788Z,1010.39
2019-01-20T11:12:54.641Z,1010.39
2019-01-20T11:13:54.610Z,1010.42
2019-01-20T11:14:54.573Z,1010.38
2019-01-20T11:15:54.541Z,1010.40
2019-01-20T11:16:54.509Z,1010.40
2019-01-20T11:17:54.478Z,1010.39
2019-01-20T11:18:54.500Z,1010.41
2019-01-20T11:19:54.408Z,1010.40
2019-01-20T11:20:54.377Z,1010.37
2019-01-20T11:21:54.345Z,1010.38
2019-01-20T11:22:54.678Z,1010.41
2019-01-20T11:23:54.268Z,1010.39
2019-01-20T11:24:54.248Z,1010.41
2019-01-20T11:25:54.204Z,1010.39
2019-01-20T11:26:54.190Z,1010.45
2019-01-20T11:27:54.145Z,1010.36
2019-01-20T11:28:54.102Z,1010.38
2019-01-20T11:29:54.077Z,1010.38
2019-01-20T11:30:54.099Z,1010.40
2019-01-20T11:31:54.007Z,1010.38
2019-01-20T11:32:54.012Z,1010.39
2019-01-20T11:33:53.944Z,1010.39
2019-01-20T11:34:53.906Z,1010.41
2019-01-20T11:35:53.871Z,1010.35
2019-01-20T11:36:53.837Z,1010.35
2019-01-20T11:37:53.808Z,1010.36
2019-01-20T11:38:53.854Z,1010.35
2019-01-20T11:39:53.734Z,1010.39
2019-01-20T11:40:53.720Z,1010.42
2019-01-20T11:41:53.730Z,1010.42
2019-01-20T11:42:53.642Z,1010.36
2019-01-20T11:43:53.643Z,1010.40
2019-01-20T11:44:53.577Z,1010.40
2019-01-20T11:45:53.564Z,1010.38
2019-01-20T11:46:53.508Z,1010.39
2019-01-20T11:47:53.566Z,1010.40
2019-01-20T11:48:53.442Z,1010.38
2019-01-20T11:49:53.472Z,1010.39
2019-01-20T11:50:53.378Z,1010.34
2019-01-20T11:51:53.421Z,1010.40
2019-01-20T11:52:53.349Z,1010.40
2019-01-20T11:53:53.296Z,1010.37
2019-01-20T11:54:53.251Z,1010.36
2019-01-20T11:55:53.527Z,1010.38
2019-01-20T11:56:53.189Z,1010.32
2019-01-20T11:57:53.239Z,1010.33
2019-01-20T11:58:53.112Z,1010.34
2019-01-20T11:59:53.145Z,1010.39
2019-01-20T12:00:53.054Z,1010.38
2019-01-20T12:01:54.076Z,1010.38
2019-01-20T12:02:52.995Z,1010.41
2019-01-20T12:03:53.073Z,1010.40
2019-01-20T12:04:52.916Z,1010.39
2019-01-20T12:05:53.015Z,1010.46
2019-01-20T12:06:52.861Z,1010.42
2019-01-20T12:07:54.254Z,1010.45
2019-01-20T12:08:52.782Z,1010.47
2019-01-20T12:09:52.780Z,1010.42
2019-01-20T12:10:52.723Z,1010.41
2019-01-20T12:11:52.716Z,1010.42
2019-01-20T12:12:52.653Z,1010.49
2019-01-20T12:13:52.621Z,1010.43
2019-01-20T12:14:52.594Z,1010.44
2019-01-20T12:15:52.560Z,1010.48
2019-01-20T12:16:52.538Z,1010.47
2019-01-20T12:17:52.485Z,1010.47
2019-01-20T12:18:52.483Z,1010.49
2019-01-20T12:19:52.477Z,1010.48
2019-01-20T12:20:52.490Z,1010.53
2019-01-20T12:21:52.353Z,1010.49
2019-01-20T12:22:52.397Z,1010.52
2019-01-20T12:23:52.297Z,1010.51
2019-01-20T12:24:52.264Z,1010.48
2019-01-20T12:25:52.215Z,1010.47
2019-01-20T12:26:52.191Z,1010.50
2019-01-20T12:27:52.164Z,1010.45
2019-01-20T12:28:52.133Z,1010.44
2019-01-20T12:29:52.193Z,1010.41
2019-01-20T12:30:52.091Z,1010.41
2019-01-20T12:31:52.048Z,1010.44
2019-01-20T12:32:52.002Z,1010.42
2019-01-20T12:33:51.977Z,1010.40
2019-01-20T12:34:51.927Z,1010.38
2019-01-20T12:35:51.907Z,1010.39
2019-01-20T12:36:51.877Z,1010.39
2019-01-20T12:37:51.835Z,1010.43
2019-01-20T12:38:51.816Z,1010.38
2019-01-20T12:39:51.810Z,1010.41
2019-01-20T12:40:51.739Z,1010.39
2019-01-20T12:41:51.698Z,1010.39
2019-01-20T12:42:51.671Z,1010.40
2019-01-20T12:43:51.631Z,1010.40
2019-01-20T12:44:51.628Z,1010.40
2019-01-20T12:45:51.624Z,1010.37
2019-01-20T12:46:51.558Z,1010.39
2019-01-20T12:47:51.497Z,1010.39
2019-01-20T12:48:51.530Z,1010.41
2019-01-20T12:49:51.451Z,1010.36
2019-01-20T12:50:51.408Z,1010.37
2019-01-20T12:51:51.386Z,1010.40
2019-01-20T12:52:51.353Z,1010.39
2019-01-20T12:53:51.319Z,1010.37
2019-01-20T12:54:51.282Z,1010.41
2019-01-20T12:55:51.249Z,1010.34
2019-01-20T12:56:51.238Z,1010.43
2019-01-20T12:57:51.164Z,1010.38
2019-01-20T12:58:51.153Z,1010.37
2019-01-20T12:59:51.122Z,1010.37
2019-01-20T13:00:51.096Z,1010.34
2019-01-20T13:01:51.043Z,1010.36
2019-01-20T13:02:51.039Z,1010.39
2019-01-20T13:03:50.995Z,1010.38
2019-01-20T13:04:50.949Z,1010.33
2019-01-20T13:05:50.920Z,1010.37
2019-01-20T13:06:50.873Z,1010.34
2019-01-20T13:07:50.866Z,1010.34
2019-01-20T13:08:50.916Z,1010.27
2019-01-20T13:09:50.792Z,1010.30
2019-01-20T13:10:50.753Z,1010.33
2019-01-20T13:11:50.723Z,1010.36
2019-01-20T13:12:50.691Z,1010.34
2019-01-20T13:13:50.672Z,1010.34
2019-01-20T13:14:50.625Z,1010.34
2019-01-20T13:15:50.591Z,1010.30
2019-01-20T13:16:50.560Z,1010.33
2019-01-20T13:17:50.527Z,1010.36
2019-01-20T13:18:50.516Z,1010.33
2019-01-20T13:19:50.471Z,1010.33
2019-01-20T13:20:50.440Z,1010.34
2019-01-20T13:21:50.408Z,1010.33
2019-01-20T13:22:50.378Z,1010.35
2019-01-20T13:23:50.353Z,1010.30
2019-01-20T13:24:50.329Z,1010.35
2019-01-20T13:25:50.261Z,1010.33
2019-01-20T13:26:50.238Z,1010.34
2019-01-20T13:27:50.191Z,1010.35
2019-01-20T13:28:50.172Z,1010.38
2019-01-20T13:29:50.151Z,1010.37
2019-01-20T13:30:50.178Z,1010.36
2019-01-20T13:31:52.164Z,1010.36
2019-01-20T13:32:50.061Z,1010.34
2019-01-20T13:33:51.139Z,1010.35
2019-01-20T13:34:49.975Z,1010.28
2019-01-20T13:35:50.055Z,1010.35
2019-01-20T13:36:49.909Z,1010.36
2019-01-20T13:37:51.034Z,1010.36
2019-01-20T13:38:49.833Z,1010.36
2019-01-20T13:39:49.859Z,1010.37
2019-01-20T13:40:49.777Z,1010.42
2019-01-20T13:41:49.856Z,1010.46
2019-01-20T13:42:49.703Z,1010.41
2019-01-20T13:43:51.732Z,1010.41
2019-01-20T13:44:49.662Z,1010.44
2019-01-20T13:46:04.554Z,1010.46
2019-01-20T13:46:49.583Z,1010.41
2019-01-20T13:47:50.668Z,1010.46
2019-01-20T13:48:49.525Z,1010.46
2019-01-20T13:49:49.533Z,1010.47
2019-01-20T13:50:49.468Z,1010.46
2019-01-20T13:51:50.461Z,1010.44
2019-01-20T13:52:49.388Z,1010.45
2019-01-20T13:53:50.482Z,1010.45
2019-01-20T13:54:49.317Z,1010.47
2019-01-20T13:55:49.370Z,1010.48
2019-01-20T13:56:49.268Z,1010.47
2019-01-20T13:57:51.328Z,1010.48
2019-01-20T13:58:49.189Z,1010.50
2019-01-20T14:00:05.063Z,1010.53
2019-01-20T14:00:49.753Z,1010.58
2019-01-20T14:01:56.121Z,1010.55
2019-01-20T14:02:49.063Z,1010.60
2019-01-20T14:03:51.244Z,1010.60
2019-01-20T14:04:49.013Z,1010.58
2019-01-20T14:05:49.066Z,1010.52
2019-01-20T14:06:48.933Z,1010.48
2019-01-20T14:07:55.593Z,1010.53
2019-01-20T14:08:48.890Z,1010.56
2019-01-20T14:09:48.943Z,1010.56
2019-01-20T14:10:48.810Z,1010.56
2019-01-20T14:11:49.890Z,1010.56
2019-01-20T14:12:48.799Z,1010.61
2019-01-20T14:13:48.773Z,1010.58
2019-01-20T14:14:53.898Z,1010.60
2019-01-20T14:15:50.801Z,1010.60
2019-01-20T14:16:48.617Z,1010.59